createdAt,value
2018-03-27T00:02:15.373Z,18.23
2018-03-27T00:04:43.628Z,16.57
2018-03-27T00:07:11.135Z,15.00
2018-03-27T00:09:38.616Z,11.03
2018-03-27T00:12:06.147Z,10.40
2018-03-27T00:14:33.633Z,9.70
2018-03-27T00:17:01.142Z,7.97
2018-03-27T00:19:29.392Z,8.37
2018-03-27T00:21:56.897Z,7.53
2018-03-27T00:24:24.396Z,5.90
2018-03-27T00:27:00.677Z,5.27
2018-03-27T00:29:39.947Z,5.93
2018-03-27T00:32:19.514Z,5.47
2018-03-27T00:34:58.836Z,6.60
2018-03-27T00:37:38.192Z,7.10
2018-03-27T00:40:17.459Z,6.73
2018-03-27T00:43:00.760Z,7.43
2018-03-27T00:45:28.246Z,13.17
2018-03-27T00:47:55.759Z,11.17
2018-03-27T00:50:23.273Z,11.53
2018-03-27T00:52:51.566Z,8.27
2018-03-27T00:55:20.026Z,6.40
2018-03-27T00:57:48.309Z,7.57
2018-03-27T01:00:16.567Z,7.10
2018-03-27T01:02:44.044Z,8.37
2018-03-27T01:05:12.341Z,6.57
2018-03-27T01:07:39.999Z,6.60
2018-03-27T01:10:08.242Z,7.40
2018-03-27T01:12:35.744Z,10.93
2018-03-27T01:15:03.263Z,10.37
2018-03-27T01:17:30.752Z,7.10
2018-03-27T01:19:58.273Z,7.40
2018-03-27T01:22:25.769Z,8.03
2018-03-27T01:24:53.290Z,8.67
2018-03-27T01:27:20.773Z,8.87
2018-03-27T01:29:49.054Z,7.37
2018-03-27T01:32:16.532Z,6.90
2018-03-27T01:34:44.063Z,7.23
2018-03-27T01:37:11.576Z,6.53
2018-03-27T01:39:39.085Z,6.83
2018-03-27T01:42:06.548Z,5.93
2018-03-27T01:44:34.066Z,6.80
2018-03-27T01:47:01.554Z,8.10
2018-03-27T01:49:29.833Z,8.33
2018-03-27T01:51:57.299Z,5.97
2018-03-27T01:54:24.937Z,6.00
2018-03-27T01:56:53.185Z,6.47
2018-03-27T01:59:20.678Z,6.93
2018-03-27T02:01:48.958Z,6.57
2018-03-27T02:04:16.484Z,5.90
2018-03-27T02:06:43.972Z,5.50
2018-03-27T02:09:12.362Z,11.47
2018-03-27T02:11:45.509Z,7.00
2018-03-27T02:14:18.753Z,9.77
2018-03-27T02:16:51.931Z,8.20
2018-03-27T02:19:25.140Z,7.23
2018-03-27T02:21:52.982Z,7.90
2018-03-27T02:24:21.986Z,6.73
2018-03-27T02:26:49.500Z,8.03
2018-03-27T02:29:16.975Z,7.27
2018-03-27T02:31:44.508Z,6.53
2018-03-27T02:34:12.019Z,11.60
2018-03-27T02:36:39.547Z,9.77
2018-03-27T02:39:07.048Z,7.07
2018-03-27T02:41:34.559Z,5.70
2018-03-27T02:44:02.035Z,7.07
2018-03-27T02:46:30.313Z,7.30
2018-03-27T02:48:58.565Z,6.67
2018-03-27T02:51:26.064Z,8.67
2018-03-27T02:53:53.544Z,7.57
2018-03-27T02:56:21.616Z,6.80
2018-03-27T02:58:49.114Z,6.83
2018-03-27T03:01:16.621Z,6.37
2018-03-27T03:03:44.097Z,6.37
2018-03-27T03:06:11.604Z,6.63
2018-03-27T03:08:39.855Z,6.30
2018-03-27T03:11:07.354Z,7.93
2018-03-27T03:13:34.836Z,5.67
2018-03-27T03:16:02.564Z,6.70
2018-03-27T03:18:30.024Z,6.63
2018-03-27T03:20:58.251Z,7.57
2018-03-27T03:23:25.771Z,8.33
2018-03-27T03:25:53.388Z,7.20
2018-03-27T03:28:20.874Z,8.63
2018-03-27T03:30:48.332Z,9.13
2018-03-27T03:33:15.844Z,9.60
2018-03-27T03:35:43.312Z,9.37
2018-03-27T03:38:10.829Z,8.93
2018-03-27T03:40:38.283Z,7.57
2018-03-27T03:43:05.784Z,6.63
2018-03-27T03:45:33.251Z,6.30
2018-03-27T03:48:00.784Z,9.40
2018-03-27T03:50:28.264Z,9.50
2018-03-27T03:52:55.752Z,12.97
2018-03-27T03:55:23.216Z,11.57
2018-03-27T03:57:50.713Z,11.60
2018-03-27T04:00:18.195Z,11.00
2018-03-27T04:02:45.718Z,13.20
2018-03-27T04:05:13.195Z,8.63
2018-03-27T04:07:40.674Z,10.87
2018-03-27T04:10:08.163Z,11.67
2018-03-27T04:12:35.673Z,9.40
2018-03-27T04:15:03.174Z,13.07
2018-03-27T04:17:31.427Z,11.07
2018-03-27T04:19:58.942Z,9.77
2018-03-27T04:22:26.429Z,13.57
2018-03-27T04:24:53.915Z,31.17
2018-03-27T04:27:22.156Z,20.17
2018-03-27T04:29:49.682Z,24.10
2018-03-27T04:32:17.165Z,24.87
2018-03-27T04:34:44.676Z,20.47
2018-03-27T04:37:12.931Z,12.33
2018-03-27T04:39:42.022Z,14.77
2018-03-27T04:42:09.514Z,16.03
2018-03-27T04:44:37.063Z,14.83
2018-03-27T04:47:05.326Z,11.10
2018-03-27T04:49:32.855Z,13.37
2018-03-27T04:52:00.348Z,9.57
2018-03-27T04:54:29.089Z,10.57
2018-03-27T04:56:56.584Z,9.57
2018-03-27T04:59:24.096Z,10.03
2018-03-27T05:01:51.578Z,8.80
2018-03-27T05:04:19.102Z,8.97
2018-03-27T05:06:46.563Z,8.73
2018-03-27T05:09:14.084Z,8.07
2018-03-27T05:11:43.119Z,8.93
2018-03-27T05:14:10.586Z,10.87
2018-03-27T05:16:38.121Z,10.43
2018-03-27T05:19:05.620Z,13.40
2018-03-27T05:21:33.092Z,10.03
2018-03-27T05:24:00.636Z,9.87
2018-03-27T05:26:28.827Z,8.13
2018-03-27T05:28:56.340Z,19.17
2018-03-27T05:31:23.838Z,20.37
2018-03-27T05:33:52.949Z,23.70
2018-03-27T05:36:20.469Z,28.50
2018-03-27T05:38:47.937Z,28.53
2018-03-27T05:41:15.458Z,23.57
2018-03-27T05:43:43.017Z,18.13
2018-03-27T05:46:10.524Z,13.37
2018-03-27T05:48:38.005Z,13.20
2018-03-27T05:51:06.280Z,9.90
2018-03-27T05:53:34.528Z,11.37
2018-03-27T05:56:02.127Z,12.20
2018-03-27T05:58:29.546Z,10.37
2018-03-27T06:00:57.056Z,11.07
2018-03-27T06:03:24.565Z,11.07
2018-03-27T06:05:52.209Z,11.63
2018-03-27T06:08:19.737Z,15.87
2018-03-27T06:10:47.239Z,15.03
2018-03-27T06:13:14.772Z,14.93
2018-03-27T06:15:43.075Z,10.60
2018-03-27T06:18:10.585Z,11.73
2018-03-27T06:20:38.091Z,13.67
2018-03-27T06:23:05.613Z,13.37
2018-03-27T06:25:33.108Z,9.23
2018-03-27T06:28:00.640Z,11.27
2018-03-27T06:30:28.128Z,12.70
2018-03-27T06:32:56.489Z,12.60
2018-03-27T06:35:23.956Z,12.37
2018-03-27T06:37:51.483Z,13.43
2018-03-27T06:40:18.976Z,11.83
2018-03-27T06:42:47.194Z,9.57
2018-03-27T06:45:15.480Z,12.80
2018-03-27T06:47:43.067Z,14.10
2018-03-27T06:50:10.563Z,14.43
2018-03-27T06:52:38.072Z,11.73
2018-03-27T06:55:05.557Z,14.77
2018-03-27T06:57:33.065Z,14.13
2018-03-27T07:00:01.322Z,15.90
2018-03-27T07:02:29.596Z,22.47
2018-03-27T07:04:57.101Z,15.30
2018-03-27T07:07:24.591Z,19.27
2018-03-27T07:09:52.119Z,16.60
2018-03-27T07:12:20.513Z,16.40
2018-03-27T07:14:47.994Z,19.57
2018-03-27T07:17:15.496Z,24.17
2018-03-27T07:19:42.999Z,22.17
2018-03-27T07:22:10.489Z,29.27
2018-03-27T07:24:38.776Z,21.70
2018-03-27T07:27:06.967Z,21.03
2018-03-27T07:29:34.760Z,24.27
2018-03-27T07:32:02.296Z,20.03
2018-03-27T07:34:29.816Z,24.70
2018-03-27T07:36:57.286Z,24.50
2018-03-27T07:39:25.597Z,32.90
2018-03-27T07:41:53.138Z,31.97
2018-03-27T07:44:20.638Z,27.90
2018-03-27T07:46:48.104Z,31.07
2018-03-27T07:49:15.652Z,38.60
2018-03-27T07:51:43.130Z,42.47
2018-03-27T07:54:10.640Z,39.70
2018-03-27T07:56:38.142Z,38.63
2018-03-27T07:59:05.689Z,37.13
2018-03-27T08:01:33.182Z,44.07
2018-03-27T08:04:01.477Z,39.87
2018-03-27T08:06:29.014Z,41.00
2018-03-27T08:08:57.348Z,43.27
2018-03-27T08:11:25.373Z,39.07
2018-03-27T08:13:52.896Z,41.23
2018-03-27T08:16:20.414Z,42.20
2018-03-27T08:18:47.915Z,45.90
2018-03-27T08:21:15.416Z,42.90
2018-03-27T08:23:42.900Z,44.33
2018-03-27T08:26:10.449Z,43.27
2018-03-27T08:28:37.949Z,47.43
2018-03-27T08:31:05.490Z,48.93
2018-03-27T08:33:32.990Z,42.13
2018-03-27T08:36:01.271Z,44.03
2018-03-27T08:38:29.519Z,51.43
2018-03-27T08:40:57.044Z,46.27
2018-03-27T08:43:24.582Z,45.60
2018-03-27T08:45:52.101Z,43.10
2018-03-27T08:48:19.603Z,46.27
2018-03-27T08:50:47.160Z,47.93
2018-03-27T08:53:14.653Z,40.63
2018-03-27T08:55:42.167Z,47.37
2018-03-27T08:58:10.429Z,45.13
2018-03-27T09:00:38.743Z,50.73
2018-03-27T09:03:06.950Z,42.77
2018-03-27T09:05:34.598Z,45.20
2018-03-27T09:08:02.101Z,41.77
2018-03-27T09:10:30.396Z,46.87
2018-03-27T09:12:58.708Z,43.80
2018-03-27T09:15:26.794Z,42.03
2018-03-27T09:17:54.268Z,41.60
2018-03-27T09:20:21.796Z,43.37
2018-03-27T09:22:49.289Z,43.53
2018-03-27T09:25:17.722Z,43.13
2018-03-27T09:27:45.278Z,47.60
2018-03-27T09:30:13.025Z,49.63
2018-03-27T09:32:40.525Z,47.80
2018-03-27T09:35:08.061Z,46.83
2018-03-27T09:37:35.587Z,43.20
2018-03-27T09:40:03.846Z,43.00
2018-03-27T09:42:31.362Z,43.07
2018-03-27T09:44:58.867Z,40.93
2018-03-27T09:47:27.152Z,40.63
2018-03-27T09:49:55.461Z,37.60
2018-03-27T09:52:22.958Z,38.40
2018-03-27T09:54:50.500Z,41.20
2018-03-27T09:57:18.041Z,40.60
2018-03-27T09:59:45.576Z,39.33
2018-03-27T10:02:13.078Z,38.23
2018-03-27T10:04:40.586Z,35.90
2018-03-27T10:07:08.081Z,37.23
2018-03-27T10:09:35.597Z,38.33
2018-03-27T10:12:03.085Z,35.17
2018-03-27T10:14:30.613Z,35.77
2018-03-27T10:16:58.180Z,33.33
2018-03-27T10:19:25.726Z,37.30
2018-03-27T10:21:54.016Z,34.63
2018-03-27T10:24:21.569Z,33.07
2018-03-27T10:26:49.064Z,33.77
2018-03-27T10:29:16.602Z,32.20
2018-03-27T10:31:44.072Z,31.17
2018-03-27T10:34:11.580Z,33.50
2018-03-27T10:36:39.098Z,35.23
2018-03-27T10:39:06.620Z,33.70
2018-03-27T10:41:34.146Z,30.80
2018-03-27T10:44:01.686Z,28.23
2018-03-27T10:46:29.175Z,25.70
2018-03-27T10:48:56.682Z,32.53
2018-03-27T10:51:24.215Z,29.63
2018-03-27T10:53:51.727Z,32.73
2018-03-27T10:56:19.342Z,29.47
2018-03-27T10:58:47.451Z,31.13
2018-03-27T11:01:15.046Z,27.83
2018-03-27T11:03:42.552Z,30.63
2018-03-27T11:06:10.101Z,31.47
2018-03-27T11:08:37.618Z,28.00
2018-03-27T11:11:05.174Z,32.27
2018-03-27T11:13:32.685Z,27.07
2018-03-27T11:16:00.210Z,28.63
2018-03-27T11:18:28.460Z,31.40
2018-03-27T11:20:55.977Z,32.07
2018-03-27T11:23:24.043Z,30.70
2018-03-27T11:25:51.556Z,33.70
2018-03-27T11:28:19.066Z,29.47
2018-03-27T11:30:46.621Z,33.87
2018-03-27T11:33:14.121Z,27.67
2018-03-27T11:35:41.639Z,30.87
2018-03-27T11:38:09.394Z,30.13
2018-03-27T11:40:36.970Z,31.43
2018-03-27T11:43:04.505Z,35.43
2018-03-27T11:45:32.047Z,31.30
2018-03-27T11:48:00.353Z,26.43
2018-03-27T11:50:27.885Z,27.30
2018-03-27T11:52:56.143Z,24.30
2018-03-27T11:55:23.733Z,23.30
2018-03-27T11:57:51.272Z,22.27
2018-03-27T12:00:18.904Z,24.87
2018-03-27T12:02:47.006Z,23.93
2018-03-27T12:05:14.526Z,22.27
2018-03-27T12:07:42.075Z,23.30
2018-03-27T12:10:09.583Z,24.87
2018-03-27T12:12:37.120Z,23.53
2018-03-27T12:15:04.636Z,25.33
2018-03-27T12:17:32.221Z,25.53
2018-03-27T12:19:59.965Z,23.97
2018-03-27T12:22:27.493Z,27.20
2018-03-27T12:24:55.985Z,22.57
2018-03-27T12:27:23.512Z,25.23
2018-03-27T12:29:51.051Z,23.60
2018-03-27T12:32:18.616Z,22.27
2018-03-27T12:34:46.159Z,22.70
2018-03-27T12:37:13.681Z,23.13
2018-03-27T12:39:41.175Z,20.97
2018-03-27T12:42:09.593Z,23.30
2018-03-27T12:44:37.896Z,23.43
2018-03-27T12:47:05.681Z,24.13
2018-03-27T12:49:33.208Z,23.80
2018-03-27T12:52:01.486Z,23.07
2018-03-27T12:54:29.759Z,26.13
2018-03-27T12:56:58.054Z,22.60
2018-03-27T12:59:25.570Z,24.30
2018-03-27T13:01:53.102Z,23.13
2018-03-27T13:04:20.616Z,25.10
2018-03-27T13:06:48.915Z,25.77
2018-03-27T13:09:16.708Z,29.83
2018-03-27T13:11:44.269Z,28.03
2018-03-27T13:14:12.541Z,32.67
2018-03-27T13:16:40.062Z,32.63
2018-03-27T13:19:07.586Z,33.97
2018-03-27T13:21:35.095Z,31.27
2018-03-27T13:24:02.673Z,30.27
2018-03-27T13:26:30.205Z,23.20
2018-03-27T13:28:57.718Z,20.40
2018-03-27T13:31:25.216Z,24.67
2018-03-27T13:33:52.715Z,27.13
2018-03-27T13:36:20.206Z,29.90
2018-03-27T13:38:48.487Z,29.60
2018-03-27T13:41:16.746Z,29.57
2018-03-27T13:43:44.301Z,32.37
2018-03-27T13:46:11.780Z,30.07
2018-03-27T13:48:40.088Z,31.30
2018-03-27T13:51:07.579Z,34.80
2018-03-27T13:53:35.199Z,30.23
2018-03-27T13:56:03.493Z,37.37
2018-03-27T13:58:30.976Z,36.40
2018-03-27T14:00:58.503Z,31.73
2018-03-27T14:03:26.811Z,34.83
2018-03-27T14:05:54.306Z,39.83
2018-03-27T14:08:21.848Z,39.23
2018-03-27T14:10:49.363Z,43.33
2018-03-27T14:13:16.904Z,41.83
2018-03-27T14:15:44.424Z,40.17
2018-03-27T14:18:11.902Z,45.57
2018-03-27T14:20:39.416Z,39.30
2018-03-27T14:23:06.931Z,43.60
2018-03-27T14:25:34.445Z,42.87
2018-03-27T14:28:01.947Z,42.10
2018-03-27T14:30:29.437Z,41.30
2018-03-27T14:32:56.934Z,45.53
2018-03-27T14:35:24.448Z,43.30
2018-03-27T14:37:51.991Z,46.63
2018-03-27T14:40:20.461Z,43.20
2018-03-27T14:42:47.969Z,50.67
2018-03-27T14:45:15.487Z,46.27
2018-03-27T14:47:42.994Z,37.37
2018-03-27T14:50:10.494Z,41.43
2018-03-27T14:52:38.026Z,37.23
2018-03-27T14:55:06.414Z,40.87
2018-03-27T14:57:34.701Z,46.63
2018-03-27T15:00:02.941Z,38.27
2018-03-27T15:02:31.256Z,38.83
2018-03-27T15:04:59.501Z,39.40
2018-03-27T15:07:27.007Z,33.97
2018-03-27T15:09:54.495Z,37.67
2018-03-27T15:12:21.998Z,31.17
2018-03-27T15:14:50.248Z,27.43
2018-03-27T15:17:18.548Z,35.87
2018-03-27T15:19:46.822Z,33.70
2018-03-27T15:22:15.128Z,34.77
2018-03-27T15:24:42.641Z,34.53
2018-03-27T15:27:10.152Z,37.90
2018-03-27T15:29:37.753Z,37.17
2018-03-27T15:32:05.257Z,32.73
2018-03-27T15:34:33.503Z,32.30
2018-03-27T15:37:01.772Z,30.00
2018-03-27T15:39:29.267Z,30.13
2018-03-27T15:41:56.798Z,33.70
2018-03-27T15:44:24.284Z,33.77
2018-03-27T15:46:51.827Z,35.77
2018-03-27T15:49:20.116Z,37.57
2018-03-27T15:51:47.635Z,37.50
2018-03-27T15:54:15.187Z,33.57
2018-03-27T15:56:42.708Z,36.93
2018-03-27T15:59:10.211Z,35.93
2018-03-27T16:01:37.732Z,31.70
2018-03-27T16:04:05.285Z,35.63
2018-03-27T16:06:32.821Z,41.53
2018-03-27T16:09:01.090Z,41.43
2018-03-27T16:11:30.202Z,39.50
2018-03-27T16:13:57.716Z,40.80
2018-03-27T16:16:25.238Z,44.90
2018-03-27T16:18:52.725Z,46.93
2018-03-27T16:21:20.257Z,40.10
2018-03-27T16:23:47.749Z,45.00
2018-03-27T16:26:15.284Z,39.83
2018-03-27T16:28:42.778Z,43.40
2018-03-27T16:31:11.059Z,48.13
2018-03-27T16:33:39.317Z,49.30
2018-03-27T16:36:06.869Z,47.43
2018-03-27T16:38:35.208Z,40.77
2018-03-27T16:41:02.715Z,45.63
2018-03-27T16:43:30.242Z,41.17
2018-03-27T16:45:57.775Z,42.37
2018-03-27T16:48:25.242Z,46.93
2018-03-27T16:50:52.790Z,50.60
2018-03-27T16:53:20.273Z,48.70
2018-03-27T16:55:47.841Z,48.77
2018-03-27T16:58:15.359Z,43.27
2018-03-27T17:00:43.639Z,44.47
2018-03-27T17:03:11.201Z,37.93
2018-03-27T17:05:38.727Z,47.67
2018-03-27T17:08:06.215Z,46.67
2018-03-27T17:10:33.719Z,45.33
2018-03-27T17:13:01.229Z,56.83
2018-03-27T17:15:28.730Z,54.03
2018-03-27T17:17:56.248Z,45.00
2018-03-27T17:20:23.749Z,49.80
2018-03-27T17:22:51.298Z,45.60
2018-03-27T17:25:18.788Z,54.57
2018-03-27T17:27:46.342Z,54.93
2018-03-27T17:30:13.840Z,47.97
2018-03-27T17:32:41.357Z,58.47
2018-03-27T17:35:08.864Z,57.03
2018-03-27T17:37:36.412Z,50.30
2018-03-27T17:40:03.967Z,50.20
2018-03-27T17:42:31.517Z,65.93
2018-03-27T17:44:59.119Z,65.90
2018-03-27T17:47:26.656Z,69.23
2018-03-27T17:49:54.173Z,66.03
2018-03-27T17:52:21.692Z,65.27
2018-03-27T17:54:49.290Z,72.87
2018-03-27T17:57:16.848Z,57.67
2018-03-27T17:59:44.364Z,48.40
2018-03-27T18:02:12.648Z,53.83
2018-03-27T18:04:40.166Z,58.17
2018-03-27T18:07:08.444Z,61.03
2018-03-27T18:09:36.748Z,55.80
2018-03-27T18:12:04.285Z,55.60
2018-03-27T18:14:32.549Z,47.17
2018-03-27T18:17:00.854Z,45.63
2018-03-27T18:19:28.662Z,47.73
2018-03-27T18:21:56.384Z,51.63
2018-03-27T18:24:23.879Z,58.73
2018-03-27T18:26:51.439Z,61.93
2018-03-27T18:29:18.941Z,70.00
2018-03-27T18:31:47.334Z,75.93
2018-03-27T18:34:14.831Z,84.47
2018-03-27T18:36:42.353Z,76.97
2018-03-27T18:39:09.836Z,77.87
2018-03-27T18:41:37.378Z,82.23
2018-03-27T18:44:04.860Z,67.57
2018-03-27T18:46:32.364Z,81.83
2018-03-27T18:49:00.656Z,76.43
2018-03-27T18:51:28.164Z,68.97
2018-03-27T18:53:55.647Z,66.23
2018-03-27T18:56:23.936Z,70.03
2018-03-27T18:58:52.184Z,58.67
2018-03-27T19:01:19.698Z,65.03
2018-03-27T19:03:47.201Z,58.70
2018-03-27T19:06:14.709Z,65.53
2018-03-27T19:08:43.274Z,60.73
2018-03-27T19:11:11.766Z,64.07
2018-03-27T19:13:39.233Z,71.33
2018-03-27T19:16:06.763Z,80.60
2018-03-27T19:18:35.016Z,71.27
2018-03-27T19:21:02.557Z,71.27
2018-03-27T19:23:30.048Z,73.40
2018-03-27T19:25:58.313Z,67.37
2018-03-27T19:28:25.859Z,72.20
2018-03-27T19:30:53.342Z,65.80
2018-03-27T19:33:20.905Z,65.87
2018-03-27T19:35:49.184Z,79.63
2018-03-27T19:38:17.517Z,62.73
2018-03-27T19:40:45.008Z,63.33
2018-03-27T19:43:12.514Z,87.60
2018-03-27T19:45:39.988Z,63.23
2018-03-27T19:48:07.527Z,73.63
2018-03-27T19:50:35.687Z,62.80
2018-03-27T19:53:03.196Z,77.00
2018-03-27T19:55:30.696Z,78.37
2018-03-27T19:57:58.195Z,74.07
2018-03-27T20:00:25.731Z,69.60
2018-03-27T20:02:53.237Z,84.83
2018-03-27T20:05:20.738Z,82.27
2018-03-27T20:07:48.243Z,92.93
2018-03-27T20:10:15.784Z,102.67
2018-03-27T20:12:43.303Z,103.27
2018-03-27T20:15:10.813Z,90.97
2018-03-27T20:17:38.335Z,86.87
2018-03-27T20:20:05.834Z,97.57
2018-03-27T20:22:33.370Z,112.10
2018-03-27T20:25:00.870Z,84.77
2018-03-27T20:27:28.385Z,74.70
2018-03-27T20:29:55.896Z,68.37
2018-03-27T20:32:24.180Z,103.07
2018-03-27T20:34:51.691Z,92.80
2018-03-27T20:37:19.300Z,75.93
2018-03-27T20:39:47.568Z,84.37
2018-03-27T20:42:15.899Z,86.83
2018-03-27T20:44:43.368Z,81.03
2018-03-27T20:47:10.858Z,113.47
2018-03-27T20:49:38.394Z,99.13
2018-03-27T20:52:05.918Z,72.23
2018-03-27T20:54:33.448Z,112.03
2018-03-27T20:57:01.725Z,132.27
2018-03-27T20:59:29.995Z,82.40
2018-03-27T21:01:58.300Z,93.20
2018-03-27T21:04:25.862Z,60.27
2018-03-27T21:06:53.392Z,126.03
2018-03-27T21:09:21.705Z,78.73
2018-03-27T21:11:49.221Z,73.37
2018-03-27T21:14:17.487Z,64.27
2018-03-27T21:16:45.040Z,128.60
2018-03-27T21:19:13.325Z,62.87
2018-03-27T21:21:40.838Z,101.13
2018-03-27T21:24:08.304Z,131.20
2018-03-27T21:26:36.007Z,116.47
2018-03-27T21:29:04.281Z,116.23
2018-03-27T21:31:32.534Z,89.33
2018-03-27T21:34:00.058Z,87.53
2018-03-27T21:36:27.562Z,82.83
2018-03-27T21:38:55.106Z,76.70
2018-03-27T21:41:22.704Z,100.27
2018-03-27T21:43:51.030Z,104.33
2018-03-27T21:46:18.519Z,65.23
2018-03-27T21:48:46.089Z,65.77
2018-03-27T21:51:13.581Z,82.67
2018-03-27T21:53:41.099Z,65.37
2018-03-27T21:56:08.583Z,67.90
2018-03-27T21:58:36.868Z,72.37
2018-03-27T22:01:04.350Z,57.07
2018-03-27T22:03:38.880Z,59.23
2018-03-27T22:06:06.385Z,75.83
2018-03-27T22:08:34.680Z,67.10
2018-03-27T22:11:02.152Z,54.63
2018-03-27T22:13:29.679Z,63.03
2018-03-27T22:15:58.024Z,79.67
2018-03-27T22:18:25.535Z,81.47
2018-03-27T22:20:53.027Z,51.40
2018-03-27T22:23:20.532Z,61.10
2018-03-27T22:25:48.786Z,62.10
2018-03-27T22:28:16.305Z,59.47
2018-03-27T22:30:43.792Z,61.97
2018-03-27T22:33:11.298Z,57.87
2018-03-27T22:35:38.794Z,55.80
2018-03-27T22:38:14.225Z,58.83
2018-03-27T22:40:41.726Z,50.13
2018-03-27T22:43:09.275Z,63.13
2018-03-27T22:45:36.781Z,61.37
2018-03-27T22:48:04.279Z,59.67
2018-03-27T22:50:31.790Z,63.87
2018-03-27T22:52:59.301Z,56.43
2018-03-27T22:55:26.814Z,56.10
2018-03-27T22:57:54.311Z,51.60
2018-03-27T23:00:22.620Z,106.30
2018-03-27T23:02:50.878Z,82.10
2018-03-27T23:05:18.397Z,50.57
2018-03-27T23:07:45.908Z,83.13
2018-03-27T23:10:13.407Z,63.17
2018-03-27T23:12:40.920Z,68.37
2018-03-27T23:15:08.460Z,53.00
2018-03-27T23:17:35.928Z,64.60
2018-03-27T23:20:03.478Z,58.77
2018-03-27T23:22:30.958Z,47.97
2018-03-27T23:24:58.477Z,62.80
2018-03-27T23:27:26.020Z,54.00
2018-03-27T23:29:53.552Z,39.13
2018-03-27T23:32:21.807Z,51.80
2018-03-27T23:34:49.303Z,58.13
2018-03-27T23:37:16.799Z,69.07
2018-03-27T23:39:44.317Z,73.40
2018-03-27T23:42:11.787Z,65.80
2018-03-27T23:44:39.333Z,59.37
2018-03-27T23:47:06.825Z,38.50
2018-03-27T23:49:34.329Z,38.53
2018-03-27T23:52:02.577Z,39.00
2018-03-27T23:54:30.090Z,40.23
2018-03-27T23:56:57.580Z,37.23
2018-03-27T23:59:25.083Z,43.73
